sensor_id;sensor_type;location;lat;lon;timestamp;P1;durP1;ratioP1;P2;durP2;ratioP2
49392;SDS011;35268;42.642;23.308;2023-10-13T00:02:06;11.05;;;5.00;;
49392;SDS011;35268;42.642;23.308;2023-10-13T00:04:33;13.50;;;5.15;;
49392;SDS011;35268;42.642;23.308;2023-10-13T00:07:01;9.43;;;5.25;;
49392;SDS011;35268;42.642;23.308;2023-10-13T00:09:30;10.88;;;4.75;;
49392;SDS011;35268;42.642;23.308;2023-10-13T00:12:02;9.32;;;5.05;;
49392;SDS011;35268;42.642;23.308;2023-10-13T00:14:29;12.73;;;5.18;;
49392;SDS011;35268;42.642;23.308;2023-10-13T00:17:01;9.07;;;6.45;;
49392;SDS011;35268;42.642;23.308;2023-10-13T00:19:33;14.60;;;5.43;;
49392;SDS011;35268;42.642;23.308;2023-10-13T00:22:12;10.65;;;4.63;;
49392;SDS011;35268;42.642;23.308;2023-10-13T00:24:41;7.57;;;4.55;;
49392;SDS011;35268;42.642;23.308;2023-10-13T00:27:08;9.68;;;4.80;;
49392;SDS011;35268;42.642;23.308;2023-10-13T00:29:49;17.00;;;4.93;;
49392;SDS011;35268;42.642;23.308;2023-10-13T00:32:15;10.63;;;4.80;;
49392;SDS011;35268;42.642;23.308;2023-10-13T00:34:45;10.32;;;4.57;;
49392;SDS011;35268;42.642;23.308;2023-10-13T00:37:10;10.77;;;4.97;;
49392;SDS011;35268;42.642;23.308;2023-10-13T00:42:12;13.07;;;5.90;;
49392;SDS011;35268;42.642;23.308;2023-10-13T00:44:45;12.13;;;6.63;;
49392;SDS011;35268;42.642;23.308;2023-10-13T00:47:15;8.13;;;4.88;;
49392;SDS011;35268;42.642;23.308;2023-10-13T00:50:02;19.50;;;6.35;;
49392;SDS011;35268;42.642;23.308;2023-10-13T00:52:29;18.10;;;7.35;;
49392;SDS011;35268;42.642;23.308;2023-10-13T00:54:55;12.73;;;5.75;;
49392;SDS011;35268;42.642;23.308;2023-10-13T00:57:25;10.35;;;5.13;;
49392;SDS011;35268;42.642;23.308;2023-10-13T00:59:55;13.13;;;5.50;;
49392;SDS011;35268;42.642;23.308;2023-10-13T01:02:22;10.50;;;5.35;;
49392;SDS011;35268;42.642;23.308;2023-10-13T01:05:07;14.55;;;4.95;;
49392;SDS011;35268;42.642;23.308;2023-10-13T01:07:35;10.60;;;5.32;;
49392;SDS011;35268;42.642;23.308;2023-10-13T01:10:09;11.95;;;5.55;;
49392;SDS011;35268;42.642;23.308;2023-10-13T01:12:40;8.95;;;5.05;;
49392;SDS011;35268;42.642;23.308;2023-10-13T01:15:09;10.50;;;5.40;;
49392;SDS011;35268;42.642;23.308;2023-10-13T01:17:36;13.10;;;4.80;;
49392;SDS011;35268;42.642;23.308;2023-10-13T01:20:02;9.02;;;5.13;;
49392;SDS011;35268;42.642;23.308;2023-10-13T01:22:30;14.00;;;5.50;;
49392;SDS011;35268;42.642;23.308;2023-10-13T01:24:56;7.85;;;5.15;;
49392;SDS011;35268;42.642;23.308;2023-10-13T01:27:35;8.50;;;5.35;;
49392;SDS011;35268;42.642;23.308;2023-10-13T01:30:03;16.50;;;6.23;;
49392;SDS011;35268;42.642;23.308;2023-10-13T01:32:38;11.40;;;5.43;;
49392;SDS011;35268;42.642;23.308;2023-10-13T01:35:10;8.95;;;5.75;;
49392;SDS011;35268;42.642;23.308;2023-10-13T01:37:36;11.75;;;5.68;;
49392;SDS011;35268;42.642;23.308;2023-10-13T01:40:01;11.93;;;7.45;;
49392;SDS011;35268;42.642;23.308;2023-10-13T01:42:26;16.65;;;6.90;;
49392;SDS011;35268;42.642;23.308;2023-10-13T01:44:55;9.65;;;5.82;;
49392;SDS011;35268;42.642;23.308;2023-10-13T01:47:23;13.52;;;5.82;;
49392;SDS011;35268;42.642;23.308;2023-10-13T01:49:49;13.25;;;5.20;;
49392;SDS011;35268;42.642;23.308;2023-10-13T01:52:15;9.98;;;5.45;;
49392;SDS011;35268;42.642;23.308;2023-10-13T01:54:44;9.88;;;5.25;;
49392;SDS011;35268;42.642;23.308;2023-10-13T01:57:11;15.10;;;5.45;;
49392;SDS011;35268;42.642;23.308;2023-10-13T01:59:43;18.13;;;6.60;;
49392;SDS011;35268;42.642;23.308;2023-10-13T02:02:12;16.98;;;6.43;;
49392;SDS011;35268;42.642;23.308;2023-10-13T02:04:41;11.55;;;5.82;;
49392;SDS011;35268;42.642;23.308;2023-10-13T02:07:14;16.90;;;5.68;;
49392;SDS011;35268;42.642;23.308;2023-10-13T02:09:42;12.23;;;5.75;;
49392;SDS011;35268;42.642;23.308;2023-10-13T02:12:08;10.95;;;6.13;;
49392;SDS011;35268;42.642;23.308;2023-10-13T02:14:34;12.63;;;5.90;;
49392;SDS011;35268;42.642;23.308;2023-10-13T02:17:02;12.45;;;5.32;;
49392;SDS011;35268;42.642;23.308;2023-10-13T02:19:37;10.13;;;5.85;;
49392;SDS011;35268;42.642;23.308;2023-10-13T02:22:05;10.75;;;5.45;;
49392;SDS011;35268;42.642;23.308;2023-10-13T02:24:34;9.07;;;5.22;;
49392;SDS011;35268;42.642;23.308;2023-10-13T02:27:04;10.45;;;5.55;;
49392;SDS011;35268;42.642;23.308;2023-10-13T02:29:38;13.05;;;5.97;;
49392;SDS011;35268;42.642;23.308;2023-10-13T02:32:05;18.02;;;5.15;;
49392;SDS011;35268;42.642;23.308;2023-10-13T02:34:37;8.60;;;5.22;;
49392;SDS011;35268;42.642;23.308;2023-10-13T02:37:09;9.07;;;5.38;;
49392;SDS011;35268;42.642;23.308;2023-10-13T02:39:35;13.05;;;5.35;;
49392;SDS011;35268;42.642;23.308;2023-10-13T02:42:01;12.73;;;5.18;;
49392;SDS011;35268;42.642;23.308;2023-10-13T02:44:31;10.77;;;4.78;;
49392;SDS011;35268;42.642;23.308;2023-10-13T02:47:01;10.02;;;5.15;;
49392;SDS011;35268;42.642;23.308;2023-10-13T02:49:31;10.75;;;5.88;;
49392;SDS011;35268;42.642;23.308;2023-10-13T02:51:59;11.43;;;5.65;;
49392;SDS011;35268;42.642;23.308;2023-10-13T02:54:29;10.35;;;5.47;;
49392;SDS011;35268;42.642;23.308;2023-10-13T02:57:04;10.68;;;5.72;;
49392;SDS011;35268;42.642;23.308;2023-10-13T02:59:30;12.98;;;5.68;;
49392;SDS011;35268;42.642;23.308;2023-10-13T03:02:04;17.83;;;6.50;;
49392;SDS011;35268;42.642;23.308;2023-10-13T03:04:48;13.77;;;5.95;;
49392;SDS011;35268;42.642;23.308;2023-10-13T03:07:13;14.52;;;6.05;;
49392;SDS011;35268;42.642;23.308;2023-10-13T03:09:51;20.88;;;6.97;;
49392;SDS011;35268;42.642;23.308;2023-10-13T03:12:17;16.63;;;6.75;;
49392;SDS011;35268;42.642;23.308;2023-10-13T03:14:46;11.20;;;6.15;;
49392;SDS011;35268;42.642;23.308;2023-10-13T03:17:20;10.63;;;5.80;;
49392;SDS011;35268;42.642;23.308;2023-10-13T03:19:58;12.68;;;6.32;;
49392;SDS011;35268;42.642;23.308;2023-10-13T03:22:23;16.80;;;6.30;;
49392;SDS011;35268;42.642;23.308;2023-10-13T03:27:25;18.05;;;6.13;;
49392;SDS011;35268;42.642;23.308;2023-10-13T03:30:04;13.48;;;5.93;;
49392;SDS011;35268;42.642;23.308;2023-10-13T03:32:35;16.42;;;7.13;;
49392;SDS011;35268;42.642;23.308;2023-10-13T03:35:07;19.00;;;6.72;;
49392;SDS011;35268;42.642;23.308;2023-10-13T03:37:48;14.40;;;6.68;;
49392;SDS011;35268;42.642;23.308;2023-10-13T03:40:14;12.60;;;6.90;;
49392;SDS011;35268;42.642;23.308;2023-10-13T03:42:52;11.80;;;7.05;;
49392;SDS011;35268;42.642;23.308;2023-10-13T03:45:33;20.05;;;6.90;;
49392;SDS011;35268;42.642;23.308;2023-10-13T03:48:15;14.32;;;6.88;;
49392;SDS011;35268;42.642;23.308;2023-10-13T03:50:53;14.93;;;6.18;;
49392;SDS011;35268;42.642;23.308;2023-10-13T03:53:40;13.73;;;6.50;;
49392;SDS011;35268;42.642;23.308;2023-10-13T03:56:26;14.00;;;6.93;;
49392;SDS011;35268;42.642;23.308;2023-10-13T03:58:57;12.10;;;6.15;;
49392;SDS011;35268;42.642;23.308;2023-10-13T04:01:29;19.35;;;6.68;;
49392;SDS011;35268;42.642;23.308;2023-10-13T04:04:06;15.85;;;6.22;;
49392;SDS011;35268;42.642;23.308;2023-10-13T04:06:37;16.73;;;6.32;;
49392;SDS011;35268;42.642;23.308;2023-10-13T04:09:22;24.70;;;6.93;;
49392;SDS011;35268;42.642;23.308;2023-10-13T04:14:45;13.82;;;5.78;;
49392;SDS011;35268;42.642;23.308;2023-10-13T04:17:28;11.27;;;6.05;;
49392;SDS011;35268;42.642;23.308;2023-10-13T04:19:59;11.88;;;6.15;;
49392;SDS011;35268;42.642;23.308;2023-10-13T04:22:33;23.10;;;7.07;;
49392;SDS011;35268;42.642;23.308;2023-10-13T04:25:12;16.10;;;6.90;;
49392;SDS011;35268;42.642;23.308;2023-10-13T04:27:54;14.68;;;7.05;;
49392;SDS011;35268;42.642;23.308;2023-10-13T04:30:40;15.48;;;7.25;;
49392;SDS011;35268;42.642;23.308;2023-10-13T04:33:24;18.55;;;7.53;;
49392;SDS011;35268;42.642;23.308;2023-10-13T04:39:04;21.15;;;7.13;;
49392;SDS011;35268;42.642;23.308;2023-10-13T04:41:30;11.10;;;5.75;;
49392;SDS011;35268;42.642;23.308;2023-10-13T04:44:17;14.52;;;6.53;;
49392;SDS011;35268;42.642;23.308;2023-10-13T04:46:55;16.13;;;6.75;;
49392;SDS011;35268;42.642;23.308;2023-10-13T04:49:27;16.20;;;7.30;;
49392;SDS011;35268;42.642;23.308;2023-10-13T04:51:58;18.30;;;5.63;;
49392;SDS011;35268;42.642;23.308;2023-10-13T04:54:26;16.67;;;6.03;;
49392;SDS011;35268;42.642;23.308;2023-10-13T04:56:58;12.38;;;6.38;;
49392;SDS011;35268;42.642;23.308;2023-10-13T04:59:45;18.52;;;6.43;;
49392;SDS011;35268;42.642;23.308;2023-10-13T05:02:31;27.75;;;7.40;;
49392;SDS011;35268;42.642;23.308;2023-10-13T05:05:01;18.55;;;7.75;;
49392;SDS011;35268;42.642;23.308;2023-10-13T05:07:43;21.67;;;8.85;;
49392;SDS011;35268;42.642;23.308;2023-10-13T05:10:29;17.65;;;9.32;;
49392;SDS011;35268;42.642;23.308;2023-10-13T05:13:13;29.58;;;7.95;;
49392;SDS011;35268;42.642;23.308;2023-10-13T05:15:58;15.55;;;8.63;;
49392;SDS011;35268;42.642;23.308;2023-10-13T05:18:41;20.55;;;8.60;;
49392;SDS011;35268;42.642;23.308;2023-10-13T05:21:25;19.98;;;8.25;;
49392;SDS011;35268;42.642;23.308;2023-10-13T05:24:09;27.00;;;8.48;;
49392;SDS011;35268;42.642;23.308;2023-10-13T05:26:53;16.60;;;8.55;;
49392;SDS011;35268;42.642;23.308;2023-10-13T05:29:38;20.42;;;8.80;;
49392;SDS011;35268;42.642;23.308;2023-10-13T05:32:26;19.40;;;8.73;;
49392;SDS011;35268;42.642;23.308;2023-10-13T05:35:14;29.70;;;9.75;;
49392;SDS011;35268;42.642;23.308;2023-10-13T05:37:58;16.60;;;8.30;;
49392;SDS011;35268;42.642;23.308;2023-10-13T05:40:56;19.30;;;9.40;;
49392;SDS011;35268;42.642;23.308;2023-10-13T05:43:41;19.58;;;9.60;;
49392;SDS011;35268;42.642;23.308;2023-10-13T05:46:25;19.23;;;10.15;;
49392;SDS011;35268;42.642;23.308;2023-10-13T05:48:54;18.73;;;11.23;;
49392;SDS011;35268;42.642;23.308;2023-10-13T05:51:22;19.63;;;9.88;;
49392;SDS011;35268;42.642;23.308;2023-10-13T05:53:57;24.52;;;11.05;;
49392;SDS011;35268;42.642;23.308;2023-10-13T05:56:38;29.80;;;12.48;;
49392;SDS011;35268;42.642;23.308;2023-10-13T05:59:22;18.33;;;10.25;;
49392;SDS011;35268;42.642;23.308;2023-10-13T06:02:06;31.10;;;10.10;;
49392;SDS011;35268;42.642;23.308;2023-10-13T06:04:50;23.63;;;9.23;;
49392;SDS011;35268;42.642;23.308;2023-10-13T06:07:34;24.52;;;9.48;;
49392;SDS011;35268;42.642;23.308;2023-10-13T06:10:17;22.48;;;9.90;;
49392;SDS011;35268;42.642;23.308;2023-10-13T06:13:01;39.83;;;11.80;;
49392;SDS011;35268;42.642;23.308;2023-10-13T06:15:45;32.08;;;11.60;;
49392;SDS011;35268;42.642;23.308;2023-10-13T06:18:29;33.63;;;15.00;;
49392;SDS011;35268;42.642;23.308;2023-10-13T06:21:13;31.52;;;13.20;;
49392;SDS011;35268;42.642;23.308;2023-10-13T06:23:57;35.88;;;12.35;;
49392;SDS011;35268;42.642;23.308;2023-10-13T06:26:41;22.00;;;11.00;;
49392;SDS011;35268;42.642;23.308;2023-10-13T06:29:28;24.23;;;10.07;;
49392;SDS011;35268;42.642;23.308;2023-10-13T06:31:54;33.45;;;11.38;;
49392;SDS011;35268;42.642;23.308;2023-10-13T06:34:22;29.65;;;9.98;;
49392;SDS011;35268;42.642;23.308;2023-10-13T06:37:05;44.70;;;11.88;;
49392;SDS011;35268;42.642;23.308;2023-10-13T06:39:47;25.42;;;10.65;;
49392;SDS011;35268;42.642;23.308;2023-10-13T06:42:14;36.10;;;10.63;;
49392;SDS011;35268;42.642;23.308;2023-10-13T06:44:40;27.65;;;10.70;;
49392;SDS011;35268;42.642;23.308;2023-10-13T06:47:10;27.65;;;10.98;;
49392;SDS011;35268;42.642;23.308;2023-10-13T06:49:36;28.63;;;12.35;;
49392;SDS011;35268;42.642;23.308;2023-10-13T06:52:04;23.95;;;11.00;;
49392;SDS011;35268;42.642;23.308;2023-10-13T06:54:32;29.75;;;11.88;;
49392;SDS011;35268;42.642;23.308;2023-10-13T06:57:00;35.20;;;11.30;;
49392;SDS011;35268;42.642;23.308;2023-10-13T06:59:28;41.35;;;11.90;;
49392;SDS011;35268;42.642;23.308;2023-10-13T07:01:57;34.50;;;12.90;;
49392;SDS011;35268;42.642;23.308;2023-10-13T07:04:29;34.80;;;11.50;;
49392;SDS011;35268;42.642;23.308;2023-10-13T07:06:54;28.27;;;12.38;;
49392;SDS011;35268;42.642;23.308;2023-10-13T07:09:20;21.52;;;10.80;;
49392;SDS011;35268;42.642;23.308;2023-10-13T07:12:03;32.40;;;11.70;;
49392;SDS011;35268;42.642;23.308;2023-10-13T07:14:32;28.90;;;11.43;;
49392;SDS011;35268;42.642;23.308;2023-10-13T07:17:01;29.58;;;12.70;;
49392;SDS011;35268;42.642;23.308;2023-10-13T07:19:32;22.15;;;10.50;;
49392;SDS011;35268;42.642;23.308;2023-10-13T07:21:59;23.30;;;11.30;;
49392;SDS011;35268;42.642;23.308;2023-10-13T07:24:44;37.22;;;11.30;;
49392;SDS011;35268;42.642;23.308;2023-10-13T07:27:14;29.15;;;11.48;;
49392;SDS011;35268;42.642;23.308;2023-10-13T07:29:47;19.52;;;8.45;;
49392;SDS011;35268;42.642;23.308;2023-10-13T07:32:20;31.67;;;10.63;;
49392;SDS011;35268;42.642;23.308;2023-10-13T07:34:51;28.63;;;9.82;;
49392;SDS011;35268;42.642;23.308;2023-10-13T07:37:20;29.75;;;9.32;;
49392;SDS011;35268;42.642;23.308;2023-10-13T07:39:50;27.50;;;10.18;;
49392;SDS011;35268;42.642;23.308;2023-10-13T07:42:15;27.85;;;9.90;;
49392;SDS011;35268;42.642;23.308;2023-10-13T07:44:44;35.55;;;9.80;;
49392;SDS011;35268;42.642;23.308;2023-10-13T07:47:13;30.40;;;9.93;;
49392;SDS011;35268;42.642;23.308;2023-10-13T07:49:43;32.95;;;10.13;;
49392;SDS011;35268;42.642;23.308;2023-10-13T07:52:09;21.45;;;8.93;;
49392;SDS011;35268;42.642;23.308;2023-10-13T07:54:45;29.08;;;9.75;;
49392;SDS011;35268;42.642;23.308;2023-10-13T07:57:15;32.08;;;10.27;;
49392;SDS011;35268;42.642;23.308;2023-10-13T07:59:42;31.35;;;10.68;;
49392;SDS011;35268;42.642;23.308;2023-10-13T08:05:00;22.40;;;9.60;;
49392;SDS011;35268;42.642;23.308;2023-10-13T08:07:25;39.78;;;11.18;;
49392;SDS011;35268;42.642;23.308;2023-10-13T08:09:53;28.75;;;10.25;;
49392;SDS011;35268;42.642;23.308;2023-10-13T08:12:19;37.28;;;9.20;;
49392;SDS011;35268;42.642;23.308;2023-10-13T08:14:46;37.15;;;10.95;;
49392;SDS011;35268;42.642;23.308;2023-10-13T08:17:13;32.60;;;9.52;;
49392;SDS011;35268;42.642;23.308;2023-10-13T08:19:41;30.50;;;9.57;;
49392;SDS011;35268;42.642;23.308;2023-10-13T08:22:13;35.70;;;9.63;;
49392;SDS011;35268;42.642;23.308;2023-10-13T08:24:41;30.88;;;9.35;;
49392;SDS011;35268;42.642;23.308;2023-10-13T08:27:07;25.55;;;8.95;;
49392;SDS011;35268;42.642;23.308;2023-10-13T08:29:39;26.52;;;9.70;;
49392;SDS011;35268;42.642;23.308;2023-10-13T08:32:19;26.90;;;9.05;;
49392;SDS011;35268;42.642;23.308;2023-10-13T08:35:01;30.08;;;9.93;;
49392;SDS011;35268;42.642;23.308;2023-10-13T08:37:30;26.40;;;10.43;;
49392;SDS011;35268;42.642;23.308;2023-10-13T08:40:23;40.17;;;10.90;;
49392;SDS011;35268;42.642;23.308;2023-10-13T08:43:08;41.25;;;11.88;;
49392;SDS011;35268;42.642;23.308;2023-10-13T08:45:39;30.75;;;10.45;;
49392;SDS011;35268;42.642;23.308;2023-10-13T08:48:11;24.17;;;9.40;;
49392;SDS011;35268;42.642;23.308;2023-10-13T08:53:20;35.67;;;12.95;;
49392;SDS011;35268;42.642;23.308;2023-10-13T08:55:56;31.88;;;9.93;;
49392;SDS011;35268;42.642;23.308;2023-10-13T08:58:38;37.20;;;10.30;;
49392;SDS011;35268;42.642;23.308;2023-10-13T09:01:20;26.38;;;11.27;;
49392;SDS011;35268;42.642;23.308;2023-10-13T09:04:07;37.75;;;12.60;;
49392;SDS011;35268;42.642;23.308;2023-10-13T09:06:49;39.30;;;12.32;;
49392;SDS011;35268;42.642;23.308;2023-10-13T09:09:28;28.45;;;12.95;;
49392;SDS011;35268;42.642;23.308;2023-10-13T09:12:23;30.23;;;12.73;;
49392;SDS011;35268;42.642;23.308;2023-10-13T09:14:59;32.72;;;13.10;;
49392;SDS011;35268;42.642;23.308;2023-10-13T09:17:43;37.25;;;13.85;;
49392;SDS011;35268;42.642;23.308;2023-10-13T09:20:16;42.53;;;15.57;;
49392;SDS011;35268;42.642;23.308;2023-10-13T09:23:12;43.13;;;13.38;;
49392;SDS011;35268;42.642;23.308;2023-10-13T09:25:48;42.08;;;14.45;;
49392;SDS011;35268;42.642;23.308;2023-10-13T09:28:34;29.13;;;11.23;;
49392;SDS011;35268;42.642;23.308;2023-10-13T09:31:02;24.92;;;11.63;;
49392;SDS011;35268;42.642;23.308;2023-10-13T09:33:32;23.70;;;8.98;;
49392;SDS011;35268;42.642;23.308;2023-10-13T09:36:01;25.77;;;9.32;;
49392;SDS011;35268;42.642;23.308;2023-10-13T09:38:36;36.70;;;7.82;;
49392;SDS011;35268;42.642;23.308;2023-10-13T09:41:23;25.20;;;9.32;;
49392;SDS011;35268;42.642;23.308;2023-10-13T09:43:57;12.52;;;5.90;;
49392;SDS011;35268;42.642;23.308;2023-10-13T09:46:23;23.65;;;7.85;;
49392;SDS011;35268;42.642;23.308;2023-10-13T09:48:58;21.55;;;7.53;;
49392;SDS011;35268;42.642;23.308;2023-10-13T09:51:33;28.25;;;7.80;;
49392;SDS011;35268;42.642;23.308;2023-10-13T09:56:40;17.27;;;6.68;;
49392;SDS011;35268;42.642;23.308;2023-10-13T09:59:18;16.10;;;6.35;;
49392;SDS011;35268;42.642;23.308;2023-10-13T10:01:48;26.40;;;7.32;;
49392;SDS011;35268;42.642;23.308;2023-10-13T10:04:22;27.30;;;7.30;;
49392;SDS011;35268;42.642;23.308;2023-10-13T10:06:52;21.92;;;6.60;;
49392;SDS011;35268;42.642;23.308;2023-10-13T10:09:17;17.25;;;6.25;;
49392;SDS011;35268;42.642;23.308;2023-10-13T10:17:45;16.15;;;5.97;;
49392;SDS011;35268;42.642;23.308;2023-10-13T10:20:12;12.23;;;5.65;;
49392;SDS011;35268;42.642;23.308;2023-10-13T10:22:57;27.23;;;6.75;;
49392;SDS011;35268;42.642;23.308;2023-10-13T10:25:33;13.80;;;5.18;;
49392;SDS011;35268;42.642;23.308;2023-10-13T10:28:09;19.15;;;5.10;;
49392;SDS011;35268;42.642;23.308;2023-10-13T10:30:40;16.10;;;4.28;;
49392;SDS011;35268;42.642;23.308;2023-10-13T10:33:07;7.78;;;2.30;;
49392;SDS011;35268;42.642;23.308;2023-10-13T10:35:38;6.68;;;2.35;;
49392;SDS011;35268;42.642;23.308;2023-10-13T10:41:01;5.47;;;2.05;;
49392;SDS011;35268;42.642;23.308;2023-10-13T10:46:18;12.05;;;2.70;;
49392;SDS011;35268;42.642;23.308;2023-10-13T10:48:51;5.22;;;1.85;;
49392;SDS011;35268;42.642;23.308;2023-10-13T10:51:26;14.95;;;3.30;;
49392;SDS011;35268;42.642;23.308;2023-10-13T10:53:56;13.10;;;2.30;;
49392;SDS011;35268;42.642;23.308;2023-10-13T10:56:23;6.85;;;2.28;;
49392;SDS011;35268;42.642;23.308;2023-10-13T10:58:54;11.45;;;2.70;;
49392;SDS011;35268;42.642;23.308;2023-10-13T11:01:21;12.70;;;2.55;;
49392;SDS011;35268;42.642;23.308;2023-10-13T11:03:58;17.50;;;2.47;;
49392;SDS011;35268;42.642;23.308;2023-10-13T11:06:32;7.25;;;2.33;;
49392;SDS011;35268;42.642;23.308;2023-10-13T11:11:55;9.25;;;2.97;;
49392;SDS011;35268;42.642;23.308;2023-10-13T11:14:28;13.02;;;3.33;;
49392;SDS011;35268;42.642;23.308;2023-10-13T11:16:55;13.45;;;2.97;;
49392;SDS011;35268;42.642;23.308;2023-10-13T11:19:41;13.27;;;2.97;;
49392;SDS011;35268;42.642;23.308;2023-10-13T11:22:11;14.98;;;2.78;;
49392;SDS011;35268;42.642;23.308;2023-10-13T11:24:54;8.00;;;2.63;;
49392;SDS011;35268;42.642;23.308;2023-10-13T11:27:34;12.82;;;2.92;;
49392;SDS011;35268;42.642;23.308;2023-10-13T11:30:27;6.22;;;2.40;;
49392;SDS011;35268;42.642;23.308;2023-10-13T11:33:15;11.98;;;3.15;;
49392;SDS011;35268;42.642;23.308;2023-10-13T11:35:48;6.40;;;2.35;;
49392;SDS011;35268;42.642;23.308;2023-10-13T11:38:20;7.55;;;2.22;;
49392;SDS011;35268;42.642;23.308;2023-10-13T11:41:02;9.82;;;2.13;;
49392;SDS011;35268;42.642;23.308;2023-10-13T11:43:35;8.90;;;2.35;;
49392;SDS011;35268;42.642;23.308;2023-10-13T11:46:08;4.78;;;2.10;;
49392;SDS011;35268;42.642;23.308;2023-10-13T11:48:34;6.43;;;1.95;;
49392;SDS011;35268;42.642;23.308;2023-10-13T11:51:06;4.82;;;2.05;;
49392;SDS011;35268;42.642;23.308;2023-10-13T11:53:36;14.88;;;2.30;;
49392;SDS011;35268;42.642;23.308;2023-10-13T11:56:02;6.28;;;2.40;;
49392;SDS011;35268;42.642;23.308;2023-10-13T11:58:35;5.03;;;2.38;;
49392;SDS011;35268;42.642;23.308;2023-10-13T12:01:01;13.93;;;2.30;;
49392;SDS011;35268;42.642;23.308;2023-10-13T12:03:36;9.27;;;2.53;;
49392;SDS011;35268;42.642;23.308;2023-10-13T12:06:20;7.93;;;2.50;;
49392;SDS011;35268;42.642;23.308;2023-10-13T12:08:58;13.63;;;3.28;;
49392;SDS011;35268;42.642;23.308;2023-10-13T12:11:39;8.63;;;2.47;;
49392;SDS011;35268;42.642;23.308;2023-10-13T12:14:07;13.73;;;2.33;;
49392;SDS011;35268;42.642;23.308;2023-10-13T12:16:48;15.27;;;3.42;;
49392;SDS011;35268;42.642;23.308;2023-10-13T12:19:24;9.55;;;2.90;;
49392;SDS011;35268;42.642;23.308;2023-10-13T12:21:52;10.70;;;2.78;;
49392;SDS011;35268;42.642;23.308;2023-10-13T12:24:22;7.18;;;2.50;;
49392;SDS011;35268;42.642;23.308;2023-10-13T12:27:00;10.97;;;2.33;;
49392;SDS011;35268;42.642;23.308;2023-10-13T12:29:44;5.53;;;2.13;;
49392;SDS011;35268;42.642;23.308;2023-10-13T12:32:21;8.60;;;2.35;;
49392;SDS011;35268;42.642;23.308;2023-10-13T12:34:55;11.63;;;2.83;;
49392;SDS011;35268;42.642;23.308;2023-10-13T12:37:25;9.98;;;2.40;;
49392;SDS011;35268;42.642;23.308;2023-10-13T12:40:04;10.38;;;2.30;;
49392;SDS011;35268;42.642;23.308;2023-10-13T12:42:49;9.13;;;2.55;;
49392;SDS011;35268;42.642;23.308;2023-10-13T12:45:33;5.18;;;2.10;;
49392;SDS011;35268;42.642;23.308;2023-10-13T12:48:28;8.88;;;2.25;;
49392;SDS011;35268;42.642;23.308;2023-10-13T12:51:13;10.43;;;2.67;;
49392;SDS011;35268;42.642;23.308;2023-10-13T12:53:56;8.68;;;3.50;;
49392;SDS011;35268;42.642;23.308;2023-10-13T12:56:45;9.00;;;2.25;;
49392;SDS011;35268;42.642;23.308;2023-10-13T12:59:10;9.52;;;2.63;;
49392;SDS011;35268;42.642;23.308;2023-10-13T13:01:38;9.63;;;2.88;;
49392;SDS011;35268;42.642;23.308;2023-10-13T13:04:07;10.00;;;2.40;;
49392;SDS011;35268;42.642;23.308;2023-10-13T13:06:43;6.57;;;1.90;;
49392;SDS011;35268;42.642;23.308;2023-10-13T13:09:09;9.27;;;2.13;;
49392;SDS011;35268;42.642;23.308;2023-10-13T13:11:35;9.55;;;2.90;;
49392;SDS011;35268;42.642;23.308;2023-10-13T13:14:05;11.93;;;2.53;;
49392;SDS011;35268;42.642;23.308;2023-10-13T13:16:33;11.77;;;2.80;;
49392;SDS011;35268;42.642;23.308;2023-10-13T13:18:59;9.23;;;2.60;;
49392;SDS011;35268;42.642;23.308;2023-10-13T13:21:26;11.73;;;1.63;;
49392;SDS011;35268;42.642;23.308;2023-10-13T13:23:52;9.18;;;2.67;;
49392;SDS011;35268;42.642;23.308;2023-10-13T13:26:21;8.77;;;2.15;;
49392;SDS011;35268;42.642;23.308;2023-10-13T13:28:47;14.02;;;3.10;;
49392;SDS011;35268;42.642;23.308;2023-10-13T13:31:17;8.73;;;2.88;;
49392;SDS011;35268;42.642;23.308;2023-10-13T13:33:43;8.77;;;2.80;;
49392;SDS011;35268;42.642;23.308;2023-10-13T13:36:11;9.55;;;2.10;;
49392;SDS011;35268;42.642;23.308;2023-10-13T13:38:40;4.88;;;1.92;;
49392;SDS011;35268;42.642;23.308;2023-10-13T13:41:13;8.20;;;3.05;;
49392;SDS011;35268;42.642;23.308;2023-10-13T13:43:44;8.07;;;2.60;;
49392;SDS011;35268;42.642;23.308;2023-10-13T13:46:20;9.25;;;2.83;;
49392;SDS011;35268;42.642;23.308;2023-10-13T13:48:52;6.20;;;2.40;;
49392;SDS011;35268;42.642;23.308;2023-10-13T13:51:26;8.27;;;2.80;;
49392;SDS011;35268;42.642;23.308;2023-10-13T13:53:53;11.45;;;2.25;;
49392;SDS011;35268;42.642;23.308;2023-10-13T13:56:22;16.35;;;2.75;;
49392;SDS011;35268;42.642;23.308;2023-10-13T13:58:51;11.98;;;2.45;;
49392;SDS011;35268;42.642;23.308;2023-10-13T14:01:17;4.75;;;2.28;;
49392;SDS011;35268;42.642;23.308;2023-10-13T14:03:51;15.73;;;2.50;;
49392;SDS011;35268;42.642;23.308;2023-10-13T14:08:46;16.23;;;3.08;;
49392;SDS011;35268;42.642;23.308;2023-10-13T14:11:16;21.05;;;3.33;;
49392;SDS011;35268;42.642;23.308;2023-10-13T14:16:37;12.90;;;2.63;;
49392;SDS011;35268;42.642;23.308;2023-10-13T14:19:09;9.85;;;2.15;;
49392;SDS011;35268;42.642;23.308;2023-10-13T14:21:37;9.43;;;2.40;;
49392;SDS011;35268;42.642;23.308;2023-10-13T14:24:03;9.60;;;2.30;;
49392;SDS011;35268;42.642;23.308;2023-10-13T14:26:38;10.18;;;2.20;;
49392;SDS011;35268;42.642;23.308;2023-10-13T14:29:03;10.15;;;2.97;;
49392;SDS011;35268;42.642;23.308;2023-10-13T14:31:33;8.88;;;3.08;;
49392;SDS011;35268;42.642;23.308;2023-10-13T14:34:05;17.08;;;2.55;;
49392;SDS011;35268;42.642;23.308;2023-10-13T14:36:32;6.07;;;2.30;;
49392;SDS011;35268;42.642;23.308;2023-10-13T14:39:01;6.82;;;3.03;;
49392;SDS011;35268;42.642;23.308;2023-10-13T14:41:29;26.95;;;7.68;;
49392;SDS011;35268;42.642;23.308;2023-10-13T14:43:56;21.55;;;11.15;;
49392;SDS011;35268;42.642;23.308;2023-10-13T14:46:30;40.47;;;24.85;;
49392;SDS011;35268;42.642;23.308;2023-10-13T14:48:55;37.83;;;18.70;;
49392;SDS011;35268;42.642;23.308;2023-10-13T14:51:21;30.27;;;14.52;;
49392;SDS011;35268;42.642;23.308;2023-10-13T14:53:46;35.25;;;13.10;;
49392;SDS011;35268;42.642;23.308;2023-10-13T14:56:13;20.27;;;8.38;;
49392;SDS011;35268;42.642;23.308;2023-10-13T14:58:40;26.25;;;6.43;;
49392;SDS011;35268;42.642;23.308;2023-10-13T15:01:14;8.30;;;3.65;;
49392;SDS011;35268;42.642;23.308;2023-10-13T15:03:44;21.42;;;4.43;;
49392;SDS011;35268;42.642;23.308;2023-10-13T15:06:15;15.75;;;3.40;;
49392;SDS011;35268;42.642;23.308;2023-10-13T15:08:43;8.80;;;3.15;;
49392;SDS011;35268;42.642;23.308;2023-10-13T15:11:14;16.60;;;4.75;;
49392;SDS011;35268;42.642;23.308;2023-10-13T15:13:43;13.65;;;3.13;;
49392;SDS011;35268;42.642;23.308;2023-10-13T15:16:18;12.80;;;3.38;;
49392;SDS011;35268;42.642;23.308;2023-10-13T15:18:52;13.30;;;3.03;;
49392;SDS011;35268;42.642;23.308;2023-10-13T15:21:25;13.20;;;3.70;;
49392;SDS011;35268;42.642;23.308;2023-10-13T15:24:01;9.18;;;3.50;;
49392;SDS011;35268;42.642;23.308;2023-10-13T15:26:42;15.05;;;4.15;;
49392;SDS011;35268;42.642;23.308;2023-10-13T15:29:16;16.75;;;3.72;;
49392;SDS011;35268;42.642;23.308;2023-10-13T15:31:43;12.02;;;4.80;;
49392;SDS011;35268;42.642;23.308;2023-10-13T15:34:30;40.40;;;5.40;;
49392;SDS011;35268;42.642;23.308;2023-10-13T15:36:57;19.10;;;3.60;;